createdAt,value
2019-05-20T00:01:32.911Z,84.35
2019-05-20T00:03:59.660Z,84.26
2019-05-20T00:06:26.472Z,84.34
2019-05-20T00:08:54.499Z,84.24
2019-05-20T00:11:21.555Z,83.96
2019-05-20T00:13:48.046Z,83.69
2019-05-20T00:16:15.752Z,84.18
2019-05-20T00:18:42.259Z,83.95
2019-05-20T00:21:08.854Z,84.08
2019-05-20T00:23:35.323Z,84.36
2019-05-20T00:26:04.725Z,84.22
2019-05-20T00:28:31.250Z,84.39
2019-05-20T00:30:57.784Z,84.42
2019-05-20T00:33:24.360Z,84.53
2019-05-20T00:35:51.009Z,84.18
2019-05-20T00:38:17.676Z,84.17
2019-05-20T00:40:44.246Z,84.27
2019-05-20T00:43:11.192Z,84.37
2019-05-20T00:45:38.098Z,84.28
2019-05-20T00:48:04.634Z,84.12
2019-05-20T00:50:33.423Z,84.21
2019-05-20T00:53:00.564Z,84.18
2019-05-20T00:55:30.602Z,84.19
2019-05-20T00:57:57.690Z,83.90
2019-05-20T01:00:25.323Z,83.77
2019-05-20T01:02:56.911Z,83.99
2019-05-20T01:05:20.968Z,84.12
2019-05-20T01:07:47.626Z,84.08
2019-05-20T01:10:14.828Z,83.83
2019-05-20T01:12:41.775Z,83.70
2019-05-20T01:15:08.635Z,83.78
2019-05-20T01:17:35.270Z,84.12
2019-05-20T01:20:06.056Z,84.28
2019-05-20T01:22:32.716Z,84.45
2019-05-20T01:24:59.480Z,84.55
2019-05-20T01:27:25.991Z,84.78
2019-05-20T01:29:52.862Z,84.61
2019-05-20T01:32:19.394Z,84.69
2019-05-20T01:34:46.281Z,84.49
2019-05-20T01:37:14.716Z,84.54
2019-05-20T01:39:41.384Z,84.55
2019-05-20T01:42:08.206Z,84.52
2019-05-20T01:44:34.922Z,84.61
2019-05-20T01:47:03.131Z,84.71
2019-05-20T01:49:29.945Z,84.66
2019-05-20T01:51:56.556Z,84.60
2019-05-20T01:54:23.326Z,84.47
2019-05-20T01:56:49.983Z,84.35
2019-05-20T01:59:16.790Z,84.11
2019-05-20T02:01:43.773Z,83.79
2019-05-20T02:04:10.874Z,83.70
2019-05-20T02:06:37.650Z,83.74
2019-05-20T02:09:07.286Z,84.05
2019-05-20T02:11:34.089Z,83.90
2019-05-20T02:14:02.560Z,84.15
2019-05-20T02:16:29.387Z,84.13
2019-05-20T02:18:56.371Z,84.33
2019-05-20T02:21:23.109Z,84.32
2019-05-20T02:23:51.220Z,84.29
2019-05-20T02:26:17.930Z,84.20
2019-05-20T02:28:46.259Z,84.27
2019-05-20T02:31:12.941Z,84.18
2019-05-20T02:33:50.683Z,84.24
2019-05-20T02:36:08.289Z,84.27
2019-05-20T02:38:35.117Z,83.92
2019-05-20T02:41:03.956Z,83.96
2019-05-20T02:43:30.854Z,84.09
2019-05-20T02:45:59.328Z,84.12
2019-05-20T02:48:26.125Z,84.21
2019-05-20T02:50:52.623Z,84.34
2019-05-20T02:53:19.506Z,84.41
2019-05-20T02:55:48.531Z,84.29
2019-05-20T02:58:15.084Z,84.18
2019-05-20T03:00:41.848Z,83.94
2019-05-20T03:03:09.806Z,83.99
2019-05-20T03:05:36.402Z,83.86
2019-05-20T03:08:03.240Z,83.85
2019-05-20T03:10:30.028Z,83.92
2019-05-20T03:12:56.827Z,84.12
2019-05-20T03:15:23.434Z,84.21
2019-05-20T03:17:50.422Z,84.18
2019-05-20T03:20:17.351Z,84.27
2019-05-20T03:22:44.124Z,84.14
2019-05-20T03:25:11.302Z,84.22
2019-05-20T03:27:38.135Z,84.08
2019-05-20T03:30:07.778Z,84.05
2019-05-20T03:32:34.543Z,83.98
2019-05-20T03:35:01.739Z,83.84
2019-05-20T03:37:29.027Z,84.01
2019-05-20T03:39:55.745Z,83.62
2019-05-20T03:42:23.228Z,83.73
2019-05-20T03:44:49.687Z,83.84
2019-05-20T03:47:17.287Z,84.07
2019-05-20T03:49:43.979Z,84.36
2019-05-20T03:52:10.613Z,84.34
2019-05-20T03:54:37.149Z,84.26
2019-05-20T03:57:04.098Z,83.84
2019-05-20T03:59:30.922Z,83.91
2019-05-20T04:01:57.667Z,83.91
2019-05-20T04:04:25.153Z,84.11
2019-05-20T04:06:52.241Z,83.85
2019-05-20T04:09:18.969Z,83.95
2019-05-20T04:11:45.602Z,84.16
2019-05-20T04:14:12.451Z,83.96
2019-05-20T04:16:40.871Z,84.04
2019-05-20T04:19:09.071Z,84.22
2019-05-20T04:21:35.647Z,84.04
2019-05-20T04:24:02.843Z,83.82
2019-05-20T04:26:29.720Z,84.11
2019-05-20T04:28:56.400Z,84.33
2019-05-20T04:31:23.093Z,84.51
2019-05-20T04:33:50.185Z,84.30
2019-05-20T04:36:16.694Z,83.96
2019-05-20T04:38:45.111Z,83.87
2019-05-20T04:41:11.763Z,84.05
2019-05-20T04:43:38.359Z,84.32
2019-05-20T04:46:04.961Z,84.56
2019-05-20T04:48:31.462Z,84.31
2019-05-20T04:50:58.370Z,84.37
2019-05-20T04:53:26.170Z,84.45
2019-05-20T04:55:53.005Z,84.38
2019-05-20T04:58:19.747Z,84.44
2019-05-20T05:00:51.006Z,84.59
2019-05-20T05:03:17.935Z,84.55
2019-05-20T05:05:44.982Z,84.63
2019-05-20T05:08:11.718Z,84.27
2019-05-20T05:10:38.615Z,84.23
2019-05-20T05:13:05.524Z,84.55
2019-05-20T05:15:32.239Z,84.33
2019-05-20T05:17:59.073Z,84.56
2019-05-20T05:20:26.945Z,84.44
2019-05-20T05:22:53.969Z,84.36
2019-05-20T05:25:21.093Z,84.39
2019-05-20T05:27:47.781Z,84.66
2019-05-20T05:30:14.856Z,84.71
2019-05-20T05:32:44.403Z,84.55
2019-05-20T05:35:14.791Z,84.42
2019-05-20T05:37:42.276Z,84.24
2019-05-20T05:40:09.693Z,83.49
2019-05-20T05:42:36.426Z,83.81
2019-05-20T05:45:07.057Z,83.51
2019-05-20T05:47:33.892Z,83.85
2019-05-20T05:50:00.665Z,83.82
2019-05-20T05:52:27.327Z,83.78
2019-05-20T05:54:53.945Z,83.76
2019-05-20T05:57:20.765Z,83.60
2019-05-20T05:59:47.907Z,83.69
2019-05-20T06:02:14.551Z,82.89
2019-05-20T06:04:41.558Z,82.02
2019-05-20T06:07:08.403Z,82.46
2019-05-20T06:09:36.160Z,81.72
2019-05-20T06:12:03.009Z,81.23
2019-05-20T06:14:29.642Z,81.42
2019-05-20T06:16:56.412Z,80.97
2019-05-20T06:19:23.193Z,81.64
2019-05-20T06:21:49.950Z,80.78
2019-05-20T06:24:16.901Z,81.55
2019-05-20T06:26:43.882Z,81.19
2019-05-20T06:29:10.651Z,81.11
2019-05-20T06:31:37.699Z,79.35
2019-05-20T06:34:04.836Z,77.34
2019-05-20T06:36:33.713Z,79.53
2019-05-20T06:39:05.695Z,77.21
2019-05-20T06:41:32.421Z,75.04
2019-05-20T06:43:59.102Z,72.63
2019-05-20T06:46:25.865Z,73.80
2019-05-20T06:48:52.642Z,74.01
2019-05-20T06:51:19.401Z,72.92
2019-05-20T06:53:46.021Z,70.21
2019-05-20T06:56:12.743Z,68.58
2019-05-20T06:58:39.665Z,68.41
2019-05-20T07:01:06.802Z,66.72
2019-05-20T07:03:35.426Z,64.29
2019-05-20T07:06:02.259Z,65.34
2019-05-20T07:08:29.152Z,65.28
2019-05-20T07:10:55.926Z,58.19
2019-05-20T07:13:22.767Z,48.73
2019-05-20T07:15:52.116Z,47.33
2019-05-20T07:18:19.759Z,47.13
2019-05-20T07:20:46.385Z,45.67
2019-05-20T07:23:13.103Z,44.06
2019-05-20T07:25:39.745Z,44.23
2019-05-20T07:28:06.847Z,45.27
2019-05-20T07:30:33.648Z,42.31
2019-05-20T07:33:00.492Z,41.25
2019-05-20T07:35:30.855Z,40.98
2019-05-20T07:37:55.960Z,39.35
2019-05-20T07:40:30.837Z,39.63
2019-05-20T07:42:57.697Z,39.08
2019-05-20T07:45:25.064Z,38.60
2019-05-20T07:47:52.001Z,38.54
2019-05-20T07:50:19.183Z,39.54
2019-05-20T07:52:45.942Z,38.60
2019-05-20T07:55:12.971Z,39.26
2019-05-20T07:57:41.594Z,40.22
2019-05-20T08:00:11.722Z,39.15
2019-05-20T08:02:38.484Z,39.56
2019-05-20T08:05:06.996Z,40.00
2019-05-20T08:07:50.387Z,40.63
2019-05-20T08:10:06.386Z,39.74
2019-05-20T08:12:33.423Z,38.55
2019-05-20T08:15:00.333Z,38.01
2019-05-20T08:17:27.165Z,38.78
2019-05-20T08:19:54.088Z,38.88
2019-05-20T08:22:20.922Z,38.90
2019-05-20T08:24:47.739Z,38.90
2019-05-20T08:27:14.398Z,39.21
2019-05-20T08:29:41.169Z,39.41
2019-05-20T08:32:07.895Z,40.32
2019-05-20T08:34:35.007Z,39.39
2019-05-20T08:37:01.990Z,39.78
2019-05-20T08:39:30.664Z,40.11
2019-05-20T08:41:57.457Z,40.47
2019-05-20T08:44:24.257Z,40.87
2019-05-20T08:46:51.104Z,40.94
2019-05-20T08:49:17.897Z,41.82
2019-05-20T08:51:44.809Z,42.17
2019-05-20T08:54:12.687Z,42.29
2019-05-20T08:56:39.443Z,43.14
2019-05-20T08:59:06.059Z,43.28
2019-05-20T09:01:35.019Z,43.05
2019-05-20T09:04:01.919Z,43.34
2019-05-20T09:06:28.611Z,42.09
2019-05-20T09:08:55.263Z,42.33
2019-05-20T09:11:22.153Z,42.64
2019-05-20T09:13:48.828Z,42.65
2019-05-20T09:16:15.469Z,42.71
2019-05-20T09:18:42.263Z,42.76
2019-05-20T09:21:09.433Z,43.21
2019-05-20T09:23:36.203Z,43.24
2019-05-20T09:26:02.786Z,44.23
2019-05-20T09:28:29.545Z,44.70
2019-05-20T09:30:56.276Z,45.51
2019-05-20T09:33:24.026Z,48.15
2019-05-20T09:35:50.814Z,50.17
2019-05-20T09:38:21.098Z,51.01
2019-05-20T09:40:47.978Z,51.44
2019-05-20T09:43:15.126Z,51.12
2019-05-20T09:45:42.258Z,51.51
2019-05-20T09:48:10.279Z,50.58
2019-05-20T09:50:37.060Z,51.03
2019-05-20T09:53:06.725Z,51.19
2019-05-20T09:55:32.723Z,50.29
2019-05-20T09:57:59.488Z,49.52
2019-05-20T10:00:28.386Z,49.23
2019-05-20T10:02:55.091Z,50.31
2019-05-20T10:05:21.904Z,49.81
2019-05-20T10:07:48.691Z,49.83
2019-05-20T10:10:15.483Z,49.76
2019-05-20T10:12:46.469Z,50.17
2019-05-20T10:15:11.847Z,51.42
2019-05-20T10:17:39.025Z,50.29
2019-05-20T10:20:08.065Z,47.01
2019-05-20T10:22:34.678Z,46.66
2019-05-20T10:25:02.319Z,45.72
2019-05-20T10:27:29.831Z,46.87
2019-05-20T10:29:56.495Z,48.25
2019-05-20T10:32:23.202Z,46.38
2019-05-20T10:34:50.829Z,45.34
2019-05-20T10:37:17.476Z,45.34
2019-05-20T10:39:45.153Z,44.05
2019-05-20T10:42:11.743Z,45.07
2019-05-20T10:44:41.731Z,46.06
2019-05-20T10:47:06.966Z,46.18
2019-05-20T10:49:33.479Z,46.36
2019-05-20T10:52:00.071Z,45.09
2019-05-20T10:54:26.878Z,45.93
2019-05-20T10:56:55.114Z,45.58
2019-05-20T10:59:21.704Z,45.91
2019-05-20T11:01:48.448Z,46.44
2019-05-20T11:04:15.421Z,45.88
2019-05-20T11:06:42.179Z,45.81
2019-05-20T11:09:14.106Z,45.70
2019-05-20T11:11:39.431Z,46.59
2019-05-20T11:14:07.824Z,45.72
2019-05-20T11:16:34.676Z,45.74
2019-05-20T11:19:01.872Z,45.56
2019-05-20T11:21:28.638Z,45.39
2019-05-20T11:23:55.655Z,45.97
2019-05-20T11:26:22.375Z,46.03
2019-05-20T11:28:49.144Z,46.44
2019-05-20T11:31:15.729Z,46.72
2019-05-20T11:33:42.644Z,46.04
2019-05-20T11:36:09.738Z,45.66
2019-05-20T11:38:36.816Z,46.62
2019-05-20T11:41:03.709Z,46.43
2019-05-20T11:43:30.633Z,46.33
2019-05-20T11:45:59.240Z,45.64
2019-05-20T11:48:25.812Z,46.47
2019-05-20T11:50:52.450Z,46.47
2019-05-20T11:53:19.330Z,46.74
2019-05-20T11:55:47.464Z,46.84
2019-05-20T11:58:16.618Z,46.88
2019-05-20T12:00:43.488Z,46.11
2019-05-20T12:03:10.089Z,46.25
2019-05-20T12:05:36.876Z,46.01
2019-05-20T12:08:03.530Z,45.97
2019-05-20T12:10:30.201Z,46.54
2019-05-20T12:12:56.774Z,45.17
2019-05-20T12:15:23.528Z,46.69
2019-05-20T12:17:50.139Z,47.05
2019-05-20T12:20:17.157Z,46.36
2019-05-20T12:22:44.044Z,46.32
2019-05-20T12:25:11.016Z,47.78
2019-05-20T12:27:38.866Z,48.89
2019-05-20T12:30:06.385Z,48.37
2019-05-20T12:32:33.463Z,48.20
2019-05-20T12:35:01.873Z,48.36
2019-05-20T12:37:28.661Z,46.85
2019-05-20T12:40:06.379Z,46.21
2019-05-20T12:42:24.015Z,45.80
2019-05-20T12:44:50.925Z,45.32
2019-05-20T12:47:22.154Z,44.53
2019-05-20T12:49:49.854Z,45.06
2019-05-20T12:52:16.547Z,45.80
2019-05-20T12:54:43.160Z,46.63
2019-05-20T12:57:10.963Z,45.77
2019-05-20T12:59:37.852Z,45.70
2019-05-20T13:02:05.168Z,43.56
2019-05-20T13:04:32.225Z,41.58
2019-05-20T13:06:58.901Z,40.77
2019-05-20T13:09:25.528Z,41.32
2019-05-20T13:11:52.400Z,41.30
2019-05-20T13:14:18.983Z,41.16
2019-05-20T13:16:45.658Z,40.85
2019-05-20T13:19:13.735Z,41.19
2019-05-20T13:21:40.554Z,40.76
2019-05-20T13:24:07.357Z,44.02
2019-05-20T13:26:34.539Z,44.56
2019-05-20T13:29:01.581Z,43.54
2019-05-20T13:31:28.691Z,41.89
2019-05-20T13:33:55.502Z,41.99
2019-05-20T13:36:23.499Z,43.15
2019-05-20T13:38:50.106Z,43.13
2019-05-20T13:41:16.880Z,45.23
2019-05-20T13:43:43.667Z,44.52
2019-05-20T13:46:10.833Z,42.82
2019-05-20T13:48:39.093Z,42.25
2019-05-20T13:51:05.982Z,41.98
2019-05-20T13:53:32.517Z,41.87
2019-05-20T13:55:58.987Z,42.65
2019-05-20T13:58:25.688Z,41.27
2019-05-20T14:00:52.575Z,40.31
2019-05-20T14:03:19.683Z,42.13
2019-05-20T14:05:46.419Z,40.41
2019-05-20T14:08:13.282Z,40.75
2019-05-20T14:10:41.187Z,42.07
2019-05-20T14:13:07.853Z,41.94
2019-05-20T14:15:34.415Z,41.37
2019-05-20T14:18:01.214Z,39.84
2019-05-20T14:20:27.816Z,39.03
2019-05-20T14:22:54.752Z,38.23
2019-05-20T14:25:21.604Z,40.96
2019-05-20T14:27:48.389Z,39.36
2019-05-20T14:30:18.129Z,41.24
2019-05-20T14:32:44.634Z,39.40
2019-05-20T14:35:11.830Z,38.50
2019-05-20T14:37:38.453Z,38.38
2019-05-20T14:40:07.103Z,39.53
2019-05-20T14:42:33.978Z,40.47
2019-05-20T14:45:00.790Z,41.73
2019-05-20T14:47:28.832Z,40.96
2019-05-20T14:49:55.685Z,41.26
2019-05-20T14:52:24.161Z,38.95
2019-05-20T14:54:50.889Z,40.71
2019-05-20T14:57:17.703Z,37.39
2019-05-20T14:59:44.297Z,40.58
2019-05-20T15:02:11.427Z,39.30
2019-05-20T15:04:38.407Z,37.75
2019-05-20T15:07:05.192Z,37.78
2019-05-20T15:09:32.045Z,37.87
2019-05-20T15:11:58.772Z,38.07
2019-05-20T15:14:25.538Z,37.99
2019-05-20T15:16:52.324Z,39.10
2019-05-20T15:19:18.830Z,39.50
2019-05-20T15:21:45.445Z,40.87
2019-05-20T15:24:12.249Z,40.66
2019-05-20T15:26:39.285Z,38.36
2019-05-20T15:29:06.332Z,39.05
2019-05-20T15:31:33.070Z,40.03
2019-05-20T15:33:59.844Z,39.53
2019-05-20T15:36:26.460Z,41.26
2019-05-20T15:38:53.213Z,40.28
2019-05-20T15:41:19.775Z,41.95
2019-05-20T15:43:46.423Z,40.21
2019-05-20T15:46:13.185Z,41.29
2019-05-20T15:48:40.046Z,39.47
2019-05-20T15:51:06.696Z,38.69
2019-05-20T15:53:33.508Z,39.39
2019-05-20T15:56:00.681Z,40.16
2019-05-20T15:58:27.633Z,40.36
2019-05-20T16:00:54.156Z,41.54
2019-05-20T16:03:21.436Z,40.95
2019-05-20T16:05:48.117Z,41.13
2019-05-20T16:08:14.792Z,41.81
2019-05-20T16:10:41.578Z,40.90
2019-05-20T16:13:08.679Z,41.58
2019-05-20T16:15:35.272Z,42.83
2019-05-20T16:18:02.409Z,41.79
2019-05-20T16:20:29.086Z,42.67
2019-05-20T16:22:55.786Z,42.45
2019-05-20T16:25:22.366Z,42.59
2019-05-20T16:27:48.908Z,42.32
2019-05-20T16:30:15.885Z,39.14
2019-05-20T16:32:42.887Z,39.58
2019-05-20T16:35:10.087Z,40.31
2019-05-20T16:37:37.649Z,41.43
2019-05-20T16:40:09.550Z,42.15
2019-05-20T16:42:38.214Z,43.22
2019-05-20T16:45:11.093Z,43.65
2019-05-20T16:47:35.955Z,43.99
2019-05-20T16:50:05.585Z,45.09
2019-05-20T16:52:34.545Z,46.09
2019-05-20T16:55:01.359Z,45.87
2019-05-20T16:57:28.097Z,46.56
2019-05-20T16:59:55.146Z,45.54
2019-05-20T17:02:21.860Z,45.56
2019-05-20T17:04:48.645Z,45.41
2019-05-20T17:07:15.546Z,43.97
2019-05-20T17:09:42.311Z,44.14
2019-05-20T17:12:09.099Z,44.95
2019-05-20T17:14:36.056Z,45.61
2019-05-20T17:17:02.946Z,45.27
2019-05-20T17:19:29.759Z,44.96
2019-05-20T17:21:57.425Z,45.13
2019-05-20T17:24:24.420Z,44.97
2019-05-20T17:26:51.577Z,44.99
2019-05-20T17:29:18.275Z,43.98
2019-05-20T17:31:44.972Z,45.16
2019-05-20T17:34:11.833Z,46.14
2019-05-20T17:36:38.861Z,46.89
2019-05-20T17:39:06.095Z,46.74
2019-05-20T17:41:32.830Z,46.86
2019-05-20T17:44:00.197Z,47.37
2019-05-20T17:46:26.912Z,46.75
2019-05-20T17:48:53.665Z,47.80
2019-05-20T17:51:22.631Z,48.00
2019-05-20T17:53:49.308Z,48.68
2019-05-20T17:56:16.136Z,47.10
2019-05-20T17:58:43.203Z,47.02
2019-05-20T18:01:31.038Z,53.65
2019-05-20T18:04:29.488Z,62.55
2019-05-20T18:07:14.405Z,68.12
2019-05-20T18:09:45.385Z,74.29
2019-05-20T18:12:12.067Z,75.00
2019-05-20T18:14:41.130Z,74.74
2019-05-20T18:17:08.085Z,75.17
2019-05-20T18:19:34.721Z,75.39
2019-05-20T18:22:03.278Z,76.22
2019-05-20T18:24:29.910Z,75.92
2019-05-20T18:26:56.597Z,77.14
2019-05-20T18:29:25.438Z,78.21
2019-05-20T18:31:52.441Z,77.75
2019-05-20T18:34:20.405Z,78.26
2019-05-20T18:36:47.333Z,79.13
2019-05-20T18:39:14.104Z,79.14
2019-05-20T18:41:41.210Z,79.33
2019-05-20T18:44:09.352Z,79.37
2019-05-20T18:46:36.081Z,78.18
2019-05-20T18:49:02.752Z,78.10
2019-05-20T18:51:29.656Z,78.10
2019-05-20T18:53:56.308Z,79.08
2019-05-20T18:56:23.255Z,79.18
2019-05-20T18:58:49.876Z,79.27
2019-05-20T19:01:19.578Z,77.69
2019-05-20T19:03:45.676Z,77.37
2019-05-20T19:06:12.676Z,77.26
2019-05-20T19:08:39.275Z,78.04
2019-05-20T19:11:06.445Z,78.30
2019-05-20T19:13:33.796Z,78.50
2019-05-20T19:16:00.655Z,78.26
2019-05-20T19:18:27.414Z,78.60
2019-05-20T19:20:53.999Z,79.60
2019-05-20T19:23:20.686Z,79.16
2019-05-20T19:25:47.364Z,79.37
2019-05-20T19:28:13.857Z,79.37
2019-05-20T19:30:40.348Z,77.72
2019-05-20T19:33:07.416Z,77.91
2019-05-20T19:35:34.095Z,77.36
2019-05-20T19:38:00.901Z,71.91
2019-05-20T19:40:27.323Z,77.35
2019-05-20T19:42:55.354Z,77.26
2019-05-20T19:45:22.474Z,75.79
2019-05-20T19:47:49.378Z,73.40
2019-05-20T19:50:17.658Z,76.41
2019-05-20T19:52:45.949Z,77.40
2019-05-20T19:55:12.841Z,75.64
2019-05-20T19:57:39.748Z,73.59
2019-05-20T20:00:07.160Z,75.34
2019-05-20T20:02:34.018Z,74.02
2019-05-20T20:05:00.728Z,69.66
2019-05-20T20:07:28.890Z,67.72
2019-05-20T20:09:55.976Z,66.92
2019-05-20T20:12:22.625Z,70.05
2019-05-20T20:14:49.343Z,72.13
2019-05-20T20:17:15.926Z,71.32
2019-05-20T20:19:42.503Z,70.65
2019-05-20T20:22:09.383Z,73.84
2019-05-20T20:24:36.026Z,70.62
2019-05-20T20:27:02.981Z,73.94
2019-05-20T20:29:29.660Z,74.95
2019-05-20T20:31:56.291Z,74.86
2019-05-20T20:34:23.024Z,74.66
2019-05-20T20:36:49.697Z,73.96
2019-05-20T20:39:16.284Z,72.38
2019-05-20T20:41:42.904Z,74.51
2019-05-20T20:44:09.576Z,75.61
2019-05-20T20:47:17.508Z,75.05
2019-05-20T20:50:27.243Z,76.04
2019-05-20T20:52:54.034Z,71.23
2019-05-20T20:55:20.822Z,67.84
2019-05-20T20:57:51.049Z,67.05
2019-05-20T21:00:18.007Z,66.57
2019-05-20T21:02:52.612Z,66.27
2019-05-20T21:05:13.497Z,67.04
2019-05-20T21:07:40.203Z,67.71
2019-05-20T21:10:07.470Z,70.29
2019-05-20T21:12:34.170Z,69.88
2019-05-20T21:15:03.317Z,72.87
2019-05-20T21:17:30.038Z,73.94
2019-05-20T21:19:56.795Z,72.16
2019-05-20T21:22:23.363Z,68.25
2019-05-20T21:24:50.479Z,67.72
2019-05-20T21:27:17.144Z,67.00
2019-05-20T21:29:43.879Z,66.02
2019-05-20T21:32:10.742Z,67.83
2019-05-20T21:35:16.770Z,67.46
2019-05-20T21:37:43.285Z,64.23
2019-05-20T21:40:10.257Z,64.42
2019-05-20T21:42:36.733Z,65.14
2019-05-20T21:45:09.371Z,62.89
2019-05-20T21:47:36.369Z,62.27
2019-05-20T21:50:04.838Z,62.34
2019-05-20T21:52:32.955Z,62.83
2019-05-20T21:54:59.444Z,62.02
2019-05-20T21:57:26.045Z,62.57
2019-05-20T21:59:52.744Z,61.55
2019-05-20T22:02:19.360Z,61.61
2019-05-20T22:04:46.111Z,60.87
2019-05-20T22:07:12.611Z,61.14
2019-05-20T22:09:39.500Z,63.25
2019-05-20T22:12:06.331Z,62.96
2019-05-20T22:14:33.268Z,63.30
2019-05-20T22:17:01.863Z,63.25
2019-05-20T22:19:28.550Z,62.94
2019-05-20T22:22:07.548Z,65.11
2019-05-20T22:24:34.287Z,67.12
2019-05-20T22:27:00.947Z,69.04
2019-05-20T22:29:29.107Z,68.27
2019-05-20T22:31:55.658Z,65.76
2019-05-20T22:34:22.308Z,67.93
2019-05-20T22:36:49.170Z,66.65
2019-05-20T22:39:15.686Z,66.76
2019-05-20T22:41:42.189Z,66.63
2019-05-20T22:44:08.815Z,67.01
2019-05-20T22:46:35.296Z,66.87
2019-05-20T22:49:01.944Z,64.89
2019-05-20T22:51:29.175Z,62.96
2019-05-20T22:53:55.699Z,63.04
2019-05-20T22:56:22.277Z,62.43
2019-05-20T22:58:48.828Z,62.55
2019-05-20T23:01:15.335Z,62.14
2019-05-20T23:03:55.715Z,61.96
2019-05-20T23:06:10.703Z,62.00
2019-05-20T23:08:37.376Z,62.54
2019-05-20T23:11:04.018Z,62.41
2019-05-20T23:13:32.031Z,62.26
2019-05-20T23:15:58.601Z,62.27
2019-05-20T23:18:25.348Z,62.01
2019-05-20T23:20:53.185Z,62.22
2019-05-20T23:23:21.424Z,62.14
2019-05-20T23:25:48.100Z,62.42
2019-05-20T23:28:15.006Z,62.28
2019-05-20T23:30:43.391Z,62.39
2019-05-20T23:33:10.406Z,62.56
2019-05-20T23:35:36.949Z,63.17
2019-05-20T23:38:03.869Z,63.23
2019-05-20T23:40:30.567Z,65.33
2019-05-20T23:42:57.245Z,66.24
2019-05-20T23:45:24.229Z,63.49
2019-05-20T23:47:51.055Z,64.76
2019-05-20T23:50:19.646Z,62.89
2019-05-20T23:52:46.421Z,62.96
2019-05-20T23:55:15.194Z,64.60
2019-05-20T23:57:41.749Z,67.91
